Time;durP1;ratioP1;P1;durP2;ratioP2;P2;SDS_P1;SDS_P2;PMS_P1;PMS_P2;Temp;Humidity;BMP_temperature;BMP_pressure;BME280_temperature;BME280_humidity;BME280_pressure;Samples;Min_cycle;Max_cycle;Signal;HPM_P1;HPM_P2
2023/03/19 00:00:33;;;;;;;;;;;;;;;25.96;43.00;97579.06;594984;238;66575;-68
2023/03/19 00:03:00;;;;;;;;;;;;;;;25.95;44.99;97572.88;594993;238;64889;-68
2023/03/19 00:05:28;;;;;;;;;;;;;;;25.95;42.58;97572.09;594900;238;66956;-68
2023/03/19 00:07:55;;;;;;;;;;;;;;;25.93;41.12;97577.75;593810;238;64934;-68
2023/03/19 00:10:23;;;;;;;;;;;;;;;25.94;42.07;97578.55;593494;238;63095;-68
2023/03/19 00:12:51;;;;;;;;;;;;;;;25.94;42.26;97578.55;594658;238;66632;-68
2023/03/19 00:15:18;;;;;;;;;;;;;;;25.93;42.71;97580.45;594614;238;64777;-68
2023/03/19 00:17:45;;;;;;;;;;;;;;;25.93;42.04;97575.06;594994;238;62915;-68
2023/03/19 00:20:13;;;;;;;;;;;;;;;25.92;42.46;97573.47;594943;238;64747;-68
2023/03/19 00:22:41;;;;;;;;;;;;;;;25.93;40.48;97571.57;595094;238;66687;-68
2023/03/19 00:25:09;;;;;;;;;;;;;;;25.93;42.40;97574.27;594875;238;65122;-68
2023/03/19 00:27:36;;;;;;;;;;;;;;;25.93;42.20;97568.88;595014;238;66874;-68
2023/03/19 00:30:05;;;;;;;;;;;;;;;25.91;43.43;97569.95;594937;238;66933;-68
2023/03/19 00:32:33;;;;;;;;;;;;;;;25.91;42.79;97563.77;594869;238;65040;-68
2023/03/19 00:35:00;;;;;;;;;;;;;;;25.91;43.32;97566.46;594906;238;67214;-68
2023/03/19 00:37:28;;;;;;;;;;;;;;;25.90;42.17;97556.80;587479;238;66846;-68
2023/03/19 00:39:56;;;;;;;;;;;;;;;25.89;42.22;97550.61;586640;240;62586;-68
2023/03/19 00:42:24;;;;;;;;;;;;;;;25.90;40.96;97549.51;586639;241;64693;-68
2023/03/19 00:44:51;;;;;;;;;;;;;;;25.90;42.67;97552.20;586562;240;67487;-68
2023/03/19 00:47:19;;;;;;;;;;;;;;;25.89;41.85;97550.61;586702;241;64922;-68
2023/03/19 00:49:46;;;;;;;;;;;;;;;25.89;41.47;97541.70;586653;240;66947;-68
2023/03/19 00:52:14;;;;;;;;;;;;;;;25.87;41.55;97542.02;586605;240;66802;-68
2023/03/19 00:54:41;;;;;;;;;;;;;;;25.89;41.74;97541.70;586881;240;64916;-68
2023/03/19 00:57:09;;;;;;;;;;;;;;;25.88;41.66;97543.61;586608;241;66835;-68
2023/03/19 00:59:36;;;;;;;;;;;;;;;25.89;40.49;97533.63;586939;240;66781;-68
2023/03/19 01:02:04;;;;;;;;;;;;;;;25.88;43.46;97534.73;586632;240;65089;-68
2023/03/19 01:04:31;;;;;;;;;;;;;;;25.87;40.90;97530.45;586885;240;66784;-68
2023/03/19 01:06:59;;;;;;;;;;;;;;;25.88;41.00;97532.04;586566;240;64295;-68
2023/03/19 01:09:27;;;;;;;;;;;;;;;25.88;42.31;97532.04;586607;240;64929;-68
2023/03/19 01:11:55;;;;;;;;;;;;;;;25.87;43.42;97523.17;586619;240;67622;-68
2023/03/19 01:14:22;;;;;;;;;;;;;;;25.87;44.51;97528.55;586618;240;66569;-68
2023/03/19 01:16:50;;;;;;;;;;;;;;;25.85;42.70;97519.95;586641;241;64746;-68
2023/03/19 01:19:19;;;;;;;;;;;;;;;25.85;44.33;97528.03;586557;241;65702;-68
2023/03/19 01:21:48;;;;;;;;;;;;;;;25.84;43.68;97515.67;586596;241;67303;-68
2023/03/19 01:24:17;;;;;;;;;;;;;;;25.85;42.56;97519.16;586688;240;43746;-68
2023/03/19 01:26:46;;;;;;;;;;;;;;;25.83;42.76;97511.36;586659;240;43875;-68
2023/03/19 01:29:16;;;;;;;;;;;;;;;25.83;41.13;97514.05;586576;242;44038;-68
2023/03/19 01:31:43;;;;;;;;;;;;;;;25.84;42.78;97523.75;586576;241;62694;-68
2023/03/19 01:34:13;;;;;;;;;;;;;;;25.83;42.16;97524.83;585936;242;47529;-68
2023/03/19 01:36:42;;;;;;;;;;;;;;;25.82;43.02;97517.82;586485;239;45427;-68
2023/03/19 01:39:10;;;;;;;;;;;;;;;25.83;43.65;97522.13;586635;242;64748;-68
2023/03/19 01:41:38;;;;;;;;;;;;;;;25.82;44.92;97515.13;586614;242;67244;-68
2023/03/19 01:44:24;;;;;;;;;;;;;;;25.82;42.08;97517.82;585912;242;47938;-68
2023/03/19 01:46:53;;;;;;;;;;;;;;;25.81;40.71;97524.31;586016;242;42614;-63
2023/03/19 01:49:31;;;;;;;;;;;;;;;25.82;43.32;97517.82;586495;242;45785;-63
2023/03/19 01:52:08;;;;;;;;;;;;;;;25.81;41.23;97518.92;584860;241;47884;-63
2023/03/19 01:54:38;;;;;;;;;;;;;;;25.81;41.96;97524.31;586295;240;45968;-63
2023/03/19 01:57:24;;;;;;;;;;;;;;;25.80;42.10;97517.30;586776;240;38594;-61
2023/03/19 02:00:04;;;;;;;;;;;;;;;25.79;41.91;97515.71;586784;241;48765;-63
2023/03/19 02:02:34;;;;;;;;;;;;;;;25.79;41.34;97523.78;584904;241;46165;-63
2023/03/19 02:05:24;;;;;;;;;;;;;;;25.79;41.02;97522.99;586769;240;46175;-63
2023/03/19 02:07:45;;;;;;;;;;;;;;;25.79;41.75;97522.99;586354;242;67956;-63
2023/03/19 02:10:14;;;;;;;;;;;;;;;25.77;42.26;97531.34;586629;242;65084;-63
2023/03/19 02:12:42;;;;;;;;;;;;;;;25.76;40.22;97521.68;586691;240;66839;-62
2023/03/19 02:15:10;;;;;;;;;;;;;;;25.76;43.35;97513.60;586690;242;65483;-62
2023/03/19 02:17:39;;;;;;;;;;;;;;;25.75;41.02;97521.95;586575;242;65700;-62
2023/03/19 02:20:11;;;;;;;;;;;;;;;25.76;40.15;97524.37;586720;240;64785;-62
2023/03/19 02:22:40;;;;;;;;;;;;;;;25.75;43.85;97517.36;586708;240;66862;-63
2023/03/19 02:25:13;;;;;;;;;;;;;;;25.75;43.42;97517.36;586571;242;62434;-62
2023/03/19 02:27:41;;;;;;;;;;;;;;;25.74;40.93;97514.98;586521;240;65637;-62
2023/03/19 02:30:11;;;;;;;;;;;;;;;25.75;42.29;97513.88;586699;241;66474;-62
2023/03/19 02:32:39;;;;;;;;;;;;;;;25.73;40.13;97519.57;586352;240;65908;-62
2023/03/19 02:35:08;;;;;;;;;;;;;;;25.73;42.83;97519.57;586606;242;66811;-62
2023/03/19 02:37:36;;;;;;;;;;;;;;;25.72;39.90;97515.26;589279;238;65044;-62
2023/03/19 02:40:06;;;;;;;;;;;;;;;25.72;44.21;97523.33;589827;239;64950;-62
2023/03/19 02:42:34;;;;;;;;;;;;;;;25.72;41.16;97519.84;589610;239;67039;-62
2023/03/19 02:45:02;;;;;;;;;;;;;;;25.72;42.85;97514.46;589716;240;66835;-62
2023/03/19 02:47:29;;;;;;;;;;;;;;;25.71;44.93;97513.67;590126;238;63809;-62
2023/03/19 02:49:57;;;;;;;;;;;;;;;25.71;43.94;97512.88;589681;240;64437;-62
2023/03/19 02:52:25;;;;;;;;;;;;;;;25.69;42.86;97519.33;589335;240;67263;-62
2023/03/19 02:54:53;;;;;;;;;;;;;;;25.69;43.90;97513.94;589684;239;65177;-62
2023/03/19 02:57:20;;;;;;;;;;;;;;;25.68;40.49;97517.73;589794;239;67490;-62
2023/03/19 02:59:48;;;;;;;;;;;;;;;25.68;42.65;97512.35;589571;239;66683;-62
2023/03/19 03:02:15;;;;;;;;;;;;;;;25.68;42.10;97522.33;589862;239;65239;-62
2023/03/19 03:04:43;;;;;;;;;;;;;;;25.67;42.73;97523.39;589816;239;67099;-62
2023/03/19 03:07:10;;;;;;;;;;;;;;;25.67;43.72;97526.09;590136;239;66826;-62
2023/03/19 03:09:38;;;;;;;;;;;;;;;25.65;40.21;97526.39;589813;239;64985;-62
2023/03/19 03:12:06;;;;;;;;;;;;;;;25.65;44.63;97528.29;589889;238;66949;-62
2023/03/19 03:14:34;;;;;;;;;;;;;;;25.65;44.75;97528.29;588166;239;66913;-67
2023/03/19 03:17:01;;;;;;;;;;;;;;;25.64;42.20;97522.08;589053;240;65074;-67
2023/03/19 03:19:29;;;;;;;;;;;;;;;25.63;43.04;97520.48;589777;239;65305;-67
2023/03/19 03:21:57;;;;;;;;;;;;;;;25.63;45.38;97523.19;589634;239;66979;-67
2023/03/19 03:24:25;;;;;;;;;;;;;;;25.63;44.33;97514.31;591326;238;66100;-67
2023/03/19 03:26:52;;;;;;;;;;;;;;;25.61;45.69;97522.66;589704;239;66630;-67
2023/03/19 03:29:20;;;;;;;;;;;;;;;25.61;43.74;97521.87;589836;239;67491;-67
2023/03/19 03:31:47;;;;;;;;;;;;;;;25.60;40.00;97520.27;589754;239;64899;-67
2023/03/19 03:34:15;;;;;;;;;;;;;;;25.59;40.71;97529.42;589884;239;64385;-67
2023/03/19 03:36:43;;;;;;;;;;;;;;;25.59;41.93;97524.03;588310;239;66576;-67
2023/03/19 03:39:10;;;;;;;;;;;;;;;25.57;41.51;97521.66;586802;241;65125;-67
2023/03/19 03:41:38;;;;;;;;;;;;;;;25.58;43.79;97527.83;586662;242;64057;-67
2023/03/19 03:44:07;;;;;;;;;;;;;;;25.56;43.41;97528.11;586660;242;63976;-67
2023/03/19 03:46:35;;;;;;;;;;;;;;;25.56;43.78;97524.62;586639;242;62430;-67
2023/03/19 03:49:03;;;;;;;;;;;;;;;25.55;43.77;97529.20;584062;242;67578;-67
2023/03/19 03:51:31;;;;;;;;;;;;;;;25.56;44.41;97533.48;586621;242;67872;-67
2023/03/19 03:53:59;;;;;;;;;;;;;;;25.54;43.20;97526.82;586863;240;65128;-67
2023/03/19 03:56:26;;;;;;;;;;;;;;;25.54;43.28;97529.52;586621;242;64642;-67
2023/03/19 03:58:54;;;;;;;;;;;;;;;25.51;40.39;97524.68;586707;240;64632;-67
2023/03/19 04:01:22;;;;;;;;;;;;;;;25.52;43.86;97528.99;586612;242;64964;-67
2023/03/19 04:03:50;;;;;;;;;;;;;;;25.51;45.34;97527.37;586581;241;67655;-67
2023/03/19 04:06:19;;;;;;;;;;;;;;;25.50;42.50;97525.78;586583;241;64728;-67
2023/03/19 04:08:48;;;;;;;;;;;;;;;25.49;41.83;97522.30;586683;240;41653;-67
2023/03/19 04:11:17;;;;;;;;;;;;;;;25.50;45.16;97523.09;586708;240;64286;-67
2023/03/19 04:13:44;;;;;;;;;;;;;;;25.49;45.29;97521.50;586875;240;68004;-67
2023/03/19 04:16:12;;;;;;;;;;;;;;;25.47;43.53;97527.95;586449;242;62925;-67
2023/03/19 04:18:40;;;;;;;;;;;;;;;25.46;44.73;97529.05;586626;240;67337;-67
2023/03/19 04:21:08;;;;;;;;;;;;;;;25.45;43.31;97530.15;586506;240;66822;-67
2023/03/19 04:23:36;;;;;;;;;;;;;;;25.45;43.41;97530.15;586182;240;63063;-67
2023/03/19 04:26:05;;;;;;;;;;;;;;;25.44;44.87;97538.50;586630;242;66844;-68
2023/03/19 04:28:33;;;;;;;;;;;;;;;25.42;44.80;97530.70;586395;242;66810;-67
2023/03/19 04:31:02;;;;;;;;;;;;;;;25.43;46.34;97526.14;586110;242;63817;-67
2023/03/19 04:33:30;;;;;;;;;;;;;;;25.42;45.73;97530.70;580912;242;68065;-67
2023/03/19 04:35:58;;;;;;;;;;;;;;;25.42;45.63;97529.90;587735;238;67655;-67
2023/03/19 04:38:26;;;;;;;;;;;;;;;25.41;43.53;97528.31;587669;238;65161;-68
2023/03/19 04:40:55;;;;;;;;;;;;;;;25.40;45.44;97526.69;594482;238;64781;-67
2023/03/19 04:43:23;;;;;;;;;;;;;;;25.38;44.15;97526.99;594891;238;66791;-67
2023/03/19 04:45:51;;;;;;;;;;;;;;;25.37;41.97;97528.09;594896;238;65753;-67
2023/03/19 04:48:20;;;;;;;;;;;;;;;25.37;46.10;97525.41;594648;238;45638;-67
2023/03/19 04:50:51;;;;;;;;;;;;;;;25.36;43.32;97523.78;595034;238;43938;-68
2023/03/19 04:53:19;;;;;;;;;;;;;;;25.36;45.33;97520.30;594933;238;62673;-68
2023/03/19 04:55:47;;;;;;;;;;;;;;;25.35;41.90;97519.50;594963;238;67010;-68
2023/03/19 04:58:16;;;;;;;;;;;;;;;25.33;43.96;97516.29;595033;238;43069;-67
2023/03/19 05:00:46;;;;;;;;;;;;;;;25.33;44.03;97516.29;594911;238;65652;-62
2023/03/19 05:03:15;;;;;;;;;;;;;;;25.34;45.68;97522.47;594845;238;46125;-63
2023/03/19 05:05:43;;;;;;;;;;;;;;;25.32;43.19;97517.39;594957;238;64530;-63
2023/03/19 05:08:12;;;;;;;;;;;;;;;25.31;44.58;97521.14;594955;238;65833;-67
2023/03/19 05:10:40;;;;;;;;;;;;;;;25.30;44.59;97516.86;594904;238;66948;-68
2023/03/19 05:13:08;;;;;;;;;;;;;;;25.30;44.30;97518.76;594941;238;64403;-68
2023/03/19 05:15:37;;;;;;;;;;;;;;;25.28;44.18;97523.62;594899;238;46337;-68
2023/03/19 05:18:07;;;;;;;;;;;;;;;25.27;43.72;97528.20;594995;238;64685;-68
2023/03/19 05:20:41;;;;;;;;;;;;;;;25.27;48.56;97522.83;595057;238;50966;-68
2023/03/19 05:23:10;;;;;;;;;;;;;;;25.27;45.54;97517.44;594832;238;44659;-68
2023/03/19 05:25:59;;;;;;;;;;;;;;;25.25;45.31;97514.23;595105;238;37266;-68
2023/03/19 05:28:29;;;;;;;;;;;;;;;25.24;43.55;97512.64;584388;238;46600;-68
2023/03/19 05:30:56;;;;;;;;;;;;;;;25.23;43.86;97517.19;594869;238;66202;-68
2023/03/19 05:33:26;;;;;;;;;;;;;;;25.21;46.20;97508.63;590933;238;45278;-68
2023/03/19 05:35:54;;;;;;;;;;;;;;;25.21;44.12;97507.84;594978;238;64908;-68
2023/03/19 05:38:36;;;;;;;;;;;;;;;25.20;46.25;97507.02;590672;238;42448;-68
2023/03/19 05:41:05;;;;;;;;;;;;;;;25.19;43.32;97496.55;594382;238;44334;-68
2023/03/19 05:43:38;;;;;;;;;;;;;;;25.18;43.99;97495.76;589646;236;47897;-67
2023/03/19 05:46:07;;;;;;;;;;;;;;;25.18;45.15;97497.62;594318;238;46744;-67
2023/03/19 05:48:35;;;;;;;;;;;;;;;25.17;43.92;97496.83;594609;238;64317;-67
2023/03/19 05:51:03;;;;;;;;;;;;;;;25.17;43.86;97496.03;595004;238;66701;-62
2023/03/19 05:53:33;;;;;;;;;;;;;;;25.17;48.14;97504.10;594542;238;43885;-63
2023/03/19 05:56:02;;;;;;;;;;;;;;;25.14;45.57;97501.95;581080;238;46271;-63
2023/03/19 05:58:31;;;;;;;;;;;;;;;25.14;44.66;97501.95;594939;238;45186;-64
2023/03/19 06:01:00;;;;;;;;;;;;;;;25.13;45.75;97503.05;595055;238;62493;-61
2023/03/19 06:03:28;;;;;;;;;;;;;;;25.13;46.88;97503.05;594997;238;66841;-61
2023/03/19 06:05:57;;;;;;;;;;;;;;;25.12;43.26;97499.54;594912;238;44145;-63
2023/03/19 06:08:26;;;;;;;;;;;;;;;25.12;45.41;97498.75;590749;238;44036;-63
2023/03/19 06:11:12;;;;;;;;;;;;;;;25.11;45.46;97497.16;594870;238;37419;-64
2023/03/19 06:13:42;;;;;;;;;;;;;;;25.09;45.27;97497.42;594858;238;67185;-63
2023/03/19 06:16:12;;;;;;;;;;;;;;;25.09;46.16;97499.32;595097;238;43644;-63
2023/03/19 06:18:54;;;;;;;;;;;;;;;25.08;43.36;97495.05;595023;238;66891;-63
2023/03/19 06:21:24;;;;;;;;;;;;;;;25.06;44.44;97489.94;594927;238;67338;-63
2023/03/19 06:23:52;;;;;;;;;;;;;;;25.06;47.59;97494.52;594970;238;65693;-61
2023/03/19 06:26:21;;;;;;;;;;;;;;;25.07;44.67;97493.42;594938;238;48833;-63
2023/03/19 06:28:54;;;;;;;;;;;;;;;25.04;43.37;97492.09;595076;238;44521;-62
2023/03/19 06:31:22;;;;;;;;;;;;;;;25.03;43.68;97487.82;594978;238;65100;-61
2023/03/19 06:34:10;;;;;;;;;;;;;;;25.03;43.54;97485.13;593993;238;48026;-62
2023/03/19 06:36:39;;;;;;;;;;;;;;;25.03;46.48;97491.30;594945;238;43022;-62
2023/03/19 06:39:09;;;;;;;;;;;;;;;25.01;46.55;97498.84;595144;238;42342;-62
2023/03/19 06:41:36;;;;;;;;;;;;;;;25.02;46.54;97503.16;594997;238;66659;-62
2023/03/19 06:44:09;;;;;;;;;;;;;;;25.00;46.04;97496.46;594950;238;43659;-62
2023/03/19 06:46:36;;;;;;;;;;;;;;;24.98;44.55;97491.36;594965;238;65347;-62
2023/03/19 06:49:04;;;;;;;;;;;;;;;24.98;43.72;97488.67;594933;238;67298;-62
2023/03/19 06:51:31;;;;;;;;;;;;;;;24.98;44.01;97494.05;594929;238;64669;-62
2023/03/19 06:53:59;;;;;;;;;;;;;;;24.97;45.29;97489.77;594905;238;64995;-62
2023/03/19 06:56:26;;;;;;;;;;;;;;;24.96;45.71;97496.23;594982;238;67049;-62
2023/03/19 06:58:54;;;;;;;;;;;;;;;24.96;45.39;97484.66;594966;238;66649;-62
2023/03/19 07:01:21;;;;;;;;;;;;;;;24.96;44.92;97484.66;595043;238;63895;-62
2023/03/19 07:03:49;;;;;;;;;;;;;;;24.95;46.76;97486.55;595030;238;64655;-62
2023/03/19 07:06:17;;;;;;;;;;;;;;;24.95;44.96;97491.13;595002;238;66878;-62
2023/03/19 07:08:45;;;;;;;;;;;;;;;24.95;46.46;97489.23;594982;238;65000;-62
2023/03/19 07:11:13;;;;;;;;;;;;;;;24.94;44.72;97484.17;594927;238;67009;-62
2023/03/19 07:13:41;;;;;;;;;;;;;;;24.94;45.14;97481.48;595197;238;64686;-62
2023/03/19 07:16:08;;;;;;;;;;;;;;;24.92;45.73;97470.20;594989;238;62898;-62
2023/03/19 07:18:36;;;;;;;;;;;;;;;24.93;47.67;97469.89;595035;238;64287;-62
2023/03/19 07:21:03;;;;;;;;;;;;;;;24.91;45.25;97472.09;594997;238;64727;-62
2023/03/19 07:23:31;;;;;;;;;;;;;;;24.91;45.26;97466.72;594920;238;63069;-62
2023/03/19 07:25:58;;;;;;;;;;;;;;;24.90;45.00;97462.41;594950;238;64884;-62
2023/03/19 07:28:26;;;;;;;;;;;;;;;24.90;44.51;97458.92;588602;238;64243;-62
2023/03/19 07:30:54;;;;;;;;;;;;;;;24.91;44.42;97455.14;595077;238;62932;-62
2023/03/19 07:33:22;;;;;;;;;;;;;;;24.89;44.98;97458.13;594914;238;66789;-62
2023/03/19 07:35:49;;;;;;;;;;;;;;;24.89;46.40;97458.13;593558;236;66746;-62
2023/03/19 07:38:17;;;;;;;;;;;;;;;24.87;44.88;97452.23;586767;240;64931;-62
2023/03/19 07:40:44;;;;;;;;;;;;;;;24.88;45.34;97451.16;586613;242;64271;-62
2023/03/19 07:43:12;;;;;;;;;;;;;;;24.86;44.49;97447.95;586737;241;66594;-62
2023/03/19 07:45:39;;;;;;;;;;;;;;;24.86;45.23;97453.33;586643;240;65109;-62
2023/03/19 07:48:07;;;;;;;;;;;;;;;24.87;46.91;97448.74;586616;240;66633;-62
2023/03/19 07:50:37;;;;;;;;;;;;;;;24.87;47.88;97449.54;586585;241;66696;-62
2023/03/19 07:53:04;;;;;;;;;;;;;;;24.85;46.48;97446.33;586669;240;64884;-62
2023/03/19 07:55:31;;;;;;;;;;;;;;;24.84;43.92;97442.05;586592;242;64444;-62
2023/03/19 07:57:59;;;;;;;;;;;;;;;24.83;46.65;97437.77;586662;241;64743;-62
2023/03/19 08:00:27;;;;;;;;;;;;;;;24.84;46.63;97444.73;586581;242;64981;-62
2023/03/19 08:02:56;;;;;;;;;;;;;;;24.82;44.95;97436.16;586781;240;67414;-62
2023/03/19 08:05:23;;;;;;;;;;;;;;;24.81;44.35;97440.73;586628;241;66670;-62
2023/03/19 08:07:51;;;;;;;;;;;;;;;24.81;45.85;97443.42;586599;240;65779;-62
2023/03/19 08:10:18;;;;;;;;;;;;;;;24.81;46.74;97448.00;586624;241;66973;-62
2023/03/19 08:12:46;;;;;;;;;;;;;;;24.80;46.57;97438.34;586817;240;66890;-67
2023/03/19 08:15:14;;;;;;;;;;;;;;;24.80;45.54;97449.09;586703;241;62874;-67
2023/03/19 08:17:41;;;;;;;;;;;;;;;24.79;45.41;97442.10;586666;240;64818;-67
2023/03/19 08:20:15;;;;;;;;;;;;;;;24.78;44.37;97443.99;586455;241;64764;-67
2023/03/19 08:22:42;;;;;;;;;;;;;;;24.79;46.26;97444.78;586624;241;65080;-67
2023/03/19 08:25:10;;;;;;;;;;;;;;;24.78;46.82;97443.99;586583;240;67037;-67
2023/03/19 08:27:37;;;;;;;;;;;;;;;24.78;47.83;97440.51;586585;242;67046;-67
2023/03/19 08:30:07;;;;;;;;;;;;;;;24.76;46.14;97442.67;586661;241;65106;-67
2023/03/19 08:32:34;;;;;;;;;;;;;;;24.77;47.18;97439.72;586589;242;64876;-67
2023/03/19 08:35:02;;;;;;;;;;;;;;;24.75;47.11;97430.33;586579;241;64815;-66
2023/03/19 08:37:30;;;;;;;;;;;;;;;24.74;44.83;97434.88;586585;239;62988;-67
2023/03/19 08:39:57;;;;;;;;;;;;;;;24.74;45.30;97434.09;586668;241;64376;-67
2023/03/19 08:42:25;;;;;;;;;;;;;;;24.74;45.66;97428.72;589232;240;66179;-67
2023/03/19 08:44:52;;;;;;;;;;;;;;;24.73;45.31;97433.30;589242;241;65082;-67
2023/03/19 08:47:23;;;;;;;;;;;;;;;24.72;47.35;97426.33;589113;240;66625;-67
2023/03/19 08:49:50;;;;;;;;;;;;;;;24.72;46.63;97425.53;589252;239;64876;-67
2023/03/19 08:52:18;;;;;;;;;;;;;;;24.72;47.51;97422.84;589170;241;65253;-67
2023/03/19 08:54:46;;;;;;;;;;;;;;;24.71;45.86;97421.22;587267;241;66668;-67
2023/03/19 08:57:13;;;;;;;;;;;;;;;24.70;46.34;97412.36;586663;242;64508;-67
2023/03/19 08:59:41;;;;;;;;;;;;;;;24.69;46.47;97416.15;586599;241;63011;-67
2023/03/19 09:02:11;;;;;;;;;;;;;;;24.68;46.37;97413.73;586596;242;66662;-67
2023/03/19 09:04:42;;;;;;;;;;;;;;;24.68;45.35;97411.05;586594;241;66420;-68
2023/03/19 09:07:14;;;;;;;;;;;;;;;24.68;47.01;97402.98;586598;242;65069;-69
2023/03/19 09:09:42;;;;;;;;;;;;;;;24.67;46.37;97396.02;586669;242;66637;-69
2023/03/19 09:12:12;;;;;;;;;;;;;;;24.66;48.35;97400.56;586679;241;66554;-66
2023/03/19 09:14:39;;;;;;;;;;;;;;;24.66;48.57;97394.40;586610;241;65044;-68
2023/03/19 09:17:07;;;;;;;;;;;;;;;24.65;48.45;97390.92;586703;240;65654;-68
2023/03/19 09:19:35;;;;;;;;;;;;;;;24.65;45.84;97392.81;586611;240;64354;-68
2023/03/19 09:22:03;;;;;;;;;;;;;;;24.64;44.89;97399.28;586630;241;65124;-68
2023/03/19 09:24:31;;;;;;;;;;;;;;;24.62;46.89;97385.33;586551;242;66610;-68
2023/03/19 09:26:58;;;;;;;;;;;;;;;24.63;44.15;97394.97;586802;240;67706;-68
2023/03/19 09:29:26;;;;;;;;;;;;;;;24.63;47.89;97386.91;588762;240;65083;-68
2023/03/19 09:31:53;;;;;;;;;;;;;;;24.62;45.52;97382.64;586679;240;66651;-63
2023/03/19 09:34:21;;;;;;;;;;;;;;;24.61;46.82;97375.64;586635;242;66549;-62
2023/03/19 09:36:48;;;;;;;;;;;;;;;24.61;47.64;97378.33;591378;238;65050;-63
2023/03/19 09:39:16;;;;;;;;;;;;;;;24.60;46.43;97374.84;594974;238;66744;-62
2023/03/19 09:41:47;;;;;;;;;;;;;;;24.58;46.36;97375.15;595043;238;66596;-63
2023/03/19 09:44:28;;;;;;;;;;;;;;;24.58;45.12;97368.95;594910;238;63115;-63
2023/03/19 09:47:00;;;;;;;;;;;;;;;24.57;46.29;97376.22;594989;238;66690;-63
2023/03/19 09:49:32;;;;;;;;;;;;;;;24.57;46.12;97373.53;594761;238;64434;-63
2023/03/19 09:52:18;;;;;;;;;;;;;;;24.56;46.05;97368.45;594725;238;65806;-62
2023/03/19 09:54:47;;;;;;;;;;;;;;;24.54;46.65;97365.25;594422;238;65235;-63
2023/03/19 09:57:16;;;;;;;;;;;;;;;24.54;46.54;97363.36;594985;238;64033;-63
2023/03/19 09:59:44;;;;;;;;;;;;;;;24.53;46.75;97364.45;595040;238;65114;-63
2023/03/19 10:02:29;;;;;;;;;;;;;;;24.53;45.67;97359.08;594867;238;64521;-63
2023/03/19 10:04:59;;;;;;;;;;;;;;;24.52;47.38;97354.77;594933;238;66823;-63
2023/03/19 10:07:46;;;;;;;;;;;;;;;24.51;44.81;97353.19;594877;238;65076;-63
2023/03/19 10:10:32;;;;;;;;;;;;;;;24.51;45.47;97350.50;594994;238;66752;-63
2023/03/19 10:13:12;;;;;;;;;;;;;;;24.51;44.40;97355.87;594901;238;45792;-62
2023/03/19 10:15:40;;;;;;;;;;;;;;;24.51;48.12;97347.81;594839;238;62995;-62
2023/03/19 10:18:18;;;;;;;;;;;;;;;24.49;46.48;97341.91;595038;238;66747;-62
2023/03/19 10:20:49;;;;;;;;;;;;;;;24.48;46.41;97336.84;594999;238;47366;-62
2023/03/19 10:23:24;;;;;;;;;;;;;;;24.46;45.94;97339.80;595041;238;62924;-62
2023/03/19 10:25:54;;;;;;;;;;;;;;;24.46;46.93;97345.17;594950;238;66269;-62
2023/03/19 10:28:22;;;;;;;;;;;;;;;24.46;46.25;97339.80;595010;238;64685;-62
2023/03/19 10:30:54;;;;;;;;;;;;;;;24.46;47.64;97331.74;594995;238;65150;-62
2023/03/19 10:33:26;;;;;;;;;;;;;;;24.46;47.07;97326.37;594286;238;64564;-62
2023/03/19 10:36:00;;;;;;;;;;;;;;;24.45;46.11;97318.61;594796;238;45194;-62
2023/03/19 10:38:27;;;;;;;;;;;;;;;24.43;48.11;97305.42;594911;238;65102;-62
2023/03/19 10:41:05;;;;;;;;;;;;;;;24.43;44.97;97316.17;594950;238;64332;-62
2023/03/19 10:43:33;;;;;;;;;;;;;;;24.42;46.83;97303.83;594707;238;66358;-63
2023/03/19 10:46:01;;;;;;;;;;;;;;;24.43;49.26;97300.05;594925;238;62931;-63
2023/03/19 10:48:29;;;;;;;;;;;;;;;24.42;47.61;97293.09;594963;238;64591;-63
2023/03/19 10:50:58;;;;;;;;;;;;;;;24.42;47.87;97285.03;594999;238;66494;-63
2023/03/19 10:53:36;;;;;;;;;;;;;;;24.42;48.32;97287.72;594978;238;63586;-63
2023/03/19 10:56:08;;;;;;;;;;;;;;;24.41;48.89;97282.62;594984;238;64611;-63
2023/03/19 10:58:39;;;;;;;;;;;;;;;24.40;46.15;97289.88;592993;238;66646;-63
2023/03/19 11:01:10;;;;;;;;;;;;;;;24.39;44.25;97282.92;595040;238;63059;-63
2023/03/19 11:03:39;;;;;;;;;;;;;;;24.39;47.04;97288.30;594920;238;66797;-63
2023/03/19 11:06:16;;;;;;;;;;;;;;;24.39;47.55;97285.61;595028;238;66554;-68
2023/03/19 11:08:45;;;;;;;;;;;;;;;24.38;47.45;97275.93;595079;238;64890;-67
2023/03/19 11:11:14;;;;;;;;;;;;;;;24.36;47.29;97273.55;594695;238;66824;-66
2023/03/19 11:13:41;;;;;;;;;;;;;;;24.36;45.88;97272.72;594140;238;64152;-67
2023/03/19 11:16:09;;;;;;;;;;;;;;;24.37;46.79;97282.41;594940;238;64877;-66
2023/03/19 11:18:38;;;;;;;;;;;;;;;24.36;47.56;97267.35;595030;238;64416;-66
2023/03/19 11:21:08;;;;;;;;;;;;;;;24.36;47.31;97264.66;595008;238;66869;-66
2023/03/19 11:23:40;;;;;;;;;;;;;;;24.34;47.34;97258.80;594056;238;62869;-66
2023/03/19 11:26:09;;;;;;;;;;;;;;;24.34;48.50;97261.48;594970;238;66873;-68
2023/03/19 11:28:37;;;;;;;;;;;;;;;24.33;46.38;97257.98;594942;238;66505;-68
2023/03/19 11:31:15;;;;;;;;;;;;;;;24.33;46.84;97257.19;595026;238;65113;-68
2023/03/19 11:33:53;;;;;;;;;;;;;;;24.32;47.13;97255.59;594942;238;66735;-68
2023/03/19 11:36:34;;;;;;;;;;;;;;;24.33;47.68;97251.81;592739;238;64244;-67
2023/03/19 11:39:19;;;;;;;;;;;;;;;24.31;49.02;97245.95;589738;240;62986;-67
2023/03/19 11:41:54;;;;;;;;;;;;;;;24.30;46.49;97244.33;589662;240;66266;-67
2023/03/19 11:44:25;;;;;;;;;;;;;;;24.29;49.03;97234.69;589658;240;66266;-68
2023/03/19 11:46:54;;;;;;;;;;;;;;;24.28;48.63;97228.52;589724;239;65020;-68
2023/03/19 11:49:40;;;;;;;;;;;;;;;24.27;46.20;97224.22;589646;240;66694;-67
2023/03/19 11:52:09;;;;;;;;;;;;;;;24.28;46.83;97227.70;590014;238;64248;-68
2023/03/19 11:54:55;;;;;;;;;;;;;;;24.27;46.25;97221.53;589590;240;63272;-67
2023/03/19 11:57:42;;;;;;;;;;;;;;;24.26;48.33;97213.78;592671;238;66487;-67
2023/03/19 12:00:15;;;;;;;;;;;;;;;24.26;47.09;97216.47;589652;238;66313;-67
2023/03/19 12:02:50;;;;;;;;;;;;;;;24.25;46.40;97210.27;589157;238;65124;-68
2023/03/19 12:05:22;;;;;;;;;;;;;;;24.26;48.50;97208.41;588632;240;64551;-68
2023/03/19 12:07:54;;;;;;;;;;;;;;;24.24;46.20;97214.05;588853;240;64135;-68
2023/03/19 12:10:29;;;;;;;;;;;;;;;24.23;48.55;97204.41;589466;240;65336;-68
2023/03/19 12:13:07;;;;;;;;;;;;;;;24.22;45.20;97205.48;588926;239;67489;-68
2023/03/19 12:15:45;;;;;;;;;;;;;;;24.23;47.50;97204.41;589690;238;67480;-67
2023/03/19 12:18:21;;;;;;;;;;;;;;;24.21;47.23;97206.58;589903;239;62966;-68
2023/03/19 12:20:56;;;;;;;;;;;;;;;24.21;46.80;97205.78;589802;239;64536;-68
2023/03/19 12:23:40;;;;;;;;;;;;;;;24.20;47.24;97204.16;589732;239;64425;-68
2023/03/19 12:26:09;;;;;;;;;;;;;;;24.20;47.69;97201.48;589327;240;62542;-67
2023/03/19 12:28:54;;;;;;;;;;;;;;;24.19;47.71;97203.37;589540;238;66869;-67
2023/03/19 12:31:26;;;;;;;;;;;;;;;24.19;47.49;97202.58;589708;238;66319;-68
2023/03/19 12:34:15;;;;;;;;;;;;;;;24.19;49.16;97189.94;589686;240;65263;-68
2023/03/19 12:37:01;;;;;;;;;;;;;;;24.18;46.78;97185.67;592104;238;66701;-68
2023/03/19 12:39:32;;;;;;;;;;;;;;;24.16;46.95;97187.84;594998;238;66918;-67
2023/03/19 12:42:01;;;;;;;;;;;;;;;24.15;47.91;97178.98;594991;238;63157;-67
2023/03/19 12:44:40;;;;;;;;;;;;;;;24.17;47.99;97183.26;594945;238;66554;-68
2023/03/19 12:47:09;;;;;;;;;;;;;;;24.15;48.11;97176.30;594717;238;64618;-67
2023/03/19 12:49:38;;;;;;;;;;;;;;;24.14;48.25;97172.03;595194;238;63163;-68
2023/03/19 12:52:13;;;;;;;;;;;;;;;24.14;47.48;97168.52;594896;238;65469;-68
2023/03/19 12:54:42;;;;;;;;;;;;;;;24.13;47.23;97162.36;594816;238;67024;-68
2023/03/19 12:57:28;;;;;;;;;;;;;;;24.13;47.64;97164.25;594998;238;62781;-68
2023/03/19 13:00:03;;;;;;;;;;;;;;;24.13;49.17;97161.56;594997;238;66731;-68
2023/03/19 13:02:35;;;;;;;;;;;;;;;24.10;46.71;97160.25;594811;238;64653;-68